Loading...

Ergebnisse 951 - 1000 von 15061
# Veranstalter Anlass Land Von Bis
951 Arena Racing Productions '15 6th! Race 1/8 RC Caniballs GRC 26.04.2015 26.04.2015
952 Reggio Emilia RC Team 3^ Gara campionato estivo 2015 (SESSO) RE ITA 26.04.2015 26.04.2015
953 Club La Nave G.C. Raceway 4ª Prueba Campeonato Provincial La Nave 2015 ESP 26.04.2015 26.04.2015
954 NUOVO MCS 80 ASD Gara libera 1/8 - 1/10 ITA 26.04.2015 26.04.2015
955 IG-Racing Team Hamm IGRTH VM 2015 - Lauf 1 DEU 26.04.2015 26.04.2015
956 Grenland Modellbilklubb Grenland Cup 1:8 EL/IC Klubbløp NOR 26.04.2015 26.04.2015
957 Buggy Racing Tournai Club Challenge 2015 BEL 26.04.2015 26.04.2015
958 Levante Racing 2ª social levanteracing touring eco y f1 ESP 26.04.2015 26.04.2015
959 MRCZ CK 1/12 2015 03 BEL 26.04.2015 26.04.2015
960 ARCA 2ª Prueba del Cto. Regional AECAR zona Centro de 1/5 Fórmula 1 Gran Escala ESP 26.04.2015 26.04.2015
961 CACH 3° Fecha Nacional 1/10 CHL 26.04.2015 26.04.2015
962 MSCR NSO 1 NLD 26.04.2015 26.04.2015
963 Keitune Carrera Cup 2015 Round2 JPN 26.04.2015 26.04.2015
964 GEMO-Racing GEMO-GP CHE 25.04.2015 25.04.2015
965 Hudy Arena 6 kolo Slovensý pohár 2014/2015 SVK 25.04.2015 25.04.2015
966 Viborg Rc Racing Onroad Klubløb 5 - 2014/15 DNK 25.04.2015 25.04.2015
967 Gruppo Modellistico Mordanese asd Gara 6 Touring ITA 25.04.2015 26.04.2015
968 MSC der Polizei Braunschweig im ADAC e.V. (SK2/OV158) 1. SK Lauf 2015 VG 8 / VG 10 SCA DEU 25.04.2015 26.04.2015
969 MRCL CB/BK 1/10 - 1/8 BEL 25.04.2015 26.04.2015
970 MCC Rhein-Ahr e.V. Sportkreis-Meisterschaft West VG8/VG10 #2 @ Bad Breisig DEU 25.04.2015 26.04.2015
971 Speed RC Balkan Off-Road Championship round 7 ROU 25.04.2015 25.04.2015
972 AeroClube da Madeira 1ª Prova Madeira Pista Eletrico Stand Mc Queen 2015 PRT 25.04.2015 26.04.2015
973 RC CLUB RAKOVNÍK 1. Český pohár Rakovník 2015 CZE 25.04.2015 25.04.2015
974 RCCR Munzig e.V. Offroad 1. SM-Lauf SK5 2015 DEU 25.04.2015 26.04.2015
975 Complexo de Rádiomodelismo - Ortigosa C Nacional 1/8TT - 2ªProva PRT 25.04.2015 26.04.2015
976 Stavanger Modellbilklubb Sør-Cup R.1 2015 NOR 25.04.2015 25.04.2015
977 MCK e.V. Dormagen 1. SM-Lauf West VG5 DEU 25.04.2015 26.04.2015
978 MCC Türkheim e.V. 04/070 1. SK-Lauf Verebrenner-Glattbahn Sportkreis Süd 4 DEU 25.04.2015 26.04.2015
979 MC Kinetic Electric Balkans Open 2014/15 - Round 5 BGR 25.04.2015 26.04.2015
980 TEAM DARK TORC 2015 ROUND 1 CYP 25.04.2015 26.04.2015
981 BC Hornets 2015 SM/CS V8OR 1. Lauf BCH Lütisburg CHE 25.04.2015 26.04.2015
982 EFAC Hohenems 1. 2,4h Teamrennen 2015 AUT 25.04.2015 25.04.2015
983 C.A.V.S.A. 3ª ELECTRICOS 2015 ESP 25.04.2015 26.04.2015
984 SMRC Wien 1. SM Lauf 2015 AUT 25.04.2015 26.04.2015
985 Staffanstorps Hobbysällskap Vårracet 2015 SWE 25.04.2015 26.04.2015
986 LAMBC St. Andrä 1. Thermenland - Trophy 2015 AUT 25.04.2015 26.04.2015
987 MBS-RACING Kinderfeest Zaterdag 25 April 2015 - Joey NLD 25.04.2015 25.04.2015
988 Gruppo Automodellisti Valdarnesi Italian Warmup LRP TCS ITA 25.04.2015 26.04.2015
989 Horní Jelení Czech Open 2015 - 2 CZE 25.04.2015 25.04.2015
990 MRT Rosenheim e.V. RC Bike Onroad Cup 2015 DEU 25.04.2015 26.04.2015
991 AARC do ABC 2 AARC 2015 BRA 25.04.2015 26.04.2015
992 Aytemiz Racing Ratrace 2015 Summer Series Round 1 TUR 25.04.2015 26.04.2015
993 RC TOTANA 4 SOCIAL TOTANA CHE 25.04.2015 26.04.2015
994 MSC der Polizei Braunschweig im ADAC e.V. (SK2/OV158) 1. SK Lauf 2015 VG 8 / 10 SCA (B) DEU 25.04.2015 26.04.2015
995 RC MCC Brno KOPECKY - CUP 25.4.2015 On-road Brno CZE 25.04.2015 25.04.2015
996 MORAC-Graz Internat. Freundschaftsrennen AUT 24.04.2015 26.04.2015
997 Mini Racing Ticino e Moesa Campionato Svizzero VLS 1.SM/CS 2015 CHE 24.04.2015 26.04.2015
998 MRC-Leipzig e.V. 1.SK-Lauf VG5 Sportkreis 5/ 1.Lauf H.A.R.M Challenge Gruppe Ost DEU 24.04.2015 26.04.2015
999 Mini Racing Team Essonne CF Piste 1/10ème électrique M2 FRA 24.04.2015 26.04.2015
1000 Online Host Free Practice SM/CS 1/8 + 1/10 Lostallo CHE 24.04.2015 24.04.2015
Zurück  10 11 12 13 14 15 16 17 18 19 20 21 22 23 24 25 26 27 28 29 30  Vorwärts